Anchorville, MI (48004)

8:18 AM EST on February 11, 2016 (GMT -0500)
Swan Creek | | Change Station
CLOSE
Current Station
Personal Weather Station
Location: Michigan, MI
Elevation: 584 ft
Nearby Weather Stations

Elev 584 ft 42.68 °N, 82.65 °W | Updated 2 minutes ago

Partly Cloudy
Partly Cloudy
8.9 °F
Feels Like 9 °F
N
3.0
Wind Variable Wind from NW
Gusts 9.0 mph

Today
High -- | Low -- °F
--% Chance of Precip.
Yesterday
High -- | Low -- °F
Precip. -- in
Pressure 30.16 in
Visibility 10.0 miles
Clouds Few 2500 ft
Few 4900 ft
Windchill 9 °F
Dew Point 5 °F
Humidity 84%
Rainfall 0.00 in
Snow Depth Not available.
7:33 AM 5:56 PM
Waxing Crescent, 12% visible
METAR KMTC 111258Z 29009KT 10SM FEW025 FEW049 M12/M15 A3011 RMK AO2A SLP212 T11231154
Pressure 30.16 in
Visibility 10.0 miles
Clouds Few 2500 ft
Few 4900 ft
Windchill 9 °F
Dew Point 5 °F
Humidity 84%
Rainfall 0.00 in
Snow Depth Not available.
7:33 AM 5:56 PM
Waxing Crescent, 12% visible
METAR KMTC 111258Z 29009KT 10SM FEW025 FEW049 M12/M15 A3011 RMK AO2A SLP212 T11231154

10-Day Weather Forecast

Almanac

Astronomy

Feb. 11, 2016 Rise Set
Actual Time
Civil Twilight
Nautical Twilight
Astronomical Twilight
Moon
Length of Visible Light
Length of Day
Tomorrow will be .
, % of the Moon is Illuminated

Today's Extremes

State Highs State Lows

Community

WunderPhotos

Upload Photos

1,892,040 photos uploaded!

WunderBlog® & News

Nearby

Air Quality

  Air Quality AQ Index Pollutant
Not available.

Snow Depth

Station Depth Elevation

Earthquake Activity

City Distance Mag. Time & Date
Minimum magnitude displayed is 2.5.

Coastal Water Temperatures

Place Temperature

Stations

Nearby Weather Stations

Station Location Temp. Windchill Dew Point Humidity Wind Precip. Elev Updated Type
                   

Watches & Warnings

There are currently no watches in effect.